KOZR/OZR METAR and TAF weather

Enter ICAO airport designator
Station Type Date Time Source
KOZR METAR 2021/04/18 03:21 UTC NOAA

KOZR 180321Z AUTO 26004KT 10SM OVC003 16/16 A2992 RMK AO2 DZB11E21DZB21 SLP133 $


Station Type Date Time Source
KOZR Decoded METAR 2021/04/18 03:21 UTC NOAA

Cairns Army Air Field / Ozark, AL, United States (KOZR) 31-17N 085-43W
Apr 17, 2021 - 11:21 PM EDT / 2021.04.18 0321 UTC
Wind: from the W (260 degrees) at 5 MPH (4 KT):0
Visibility: 10 mile(s):0
Sky conditions: overcast
Temperature: 60 F (16 C)
Dew Point: 60 F (16 C)
Relative Humidity: 100%
Pressure (altimeter): 29.92 in. Hg (1013 hPa)
ob: KOZR 180321Z AUTO 26004KT 10SM OVC003 16/16 A2992 RMK AO2 DZB11E21DZB21 SLP133
cycle: 3

Station Type Date Time Source
KOZR TAF 2021/04/17 00:51 UTC NOAA

TAF TAF KOZR 170000Z 1700/1806 14008KT 9999 FEW007 BKN090 BKN120 QNH2980INS
BECMG 1703/1704 VRB05KT 9999 VCSH SCT007 SCT040 BKN090 OVC120 QNH2983INS
BECMG 1706/1707 16008KT 8000 -SHRA SCT007 BKN030 OVC050 QNH2983INS
BECMG 1709/1710 11008KT 8000 -SHRA OVC006 QNH2980INS
TEMPO 1710/1718 VRB10G18KT 1600 SHRA OVC003 TX14/1712Z TN18/1721Z LAST NO AMENDS AFT 1706 NEXT 1908

Example: see airport list